Time;durP1;ratioP1;P1;durP2;ratioP2;P2;SDS_P1;SDS_P2;PMS_P1;PMS_P2;Temp;Humidity;BMP_temperature;BMP_pressure;BME280_temperature;BME280_humidity;BME280_pressure;Samples;Min_cycle;Max_cycle;Signal;HPM_P1;HPM_P2
2021/10/08 00:00:33;;;;;;;23.88;13.82;;;10.40;99.90;;;;;;4955947;28;20051;-89
2021/10/08 00:02:59;;;;;;;21.48;13.68;;;10.40;99.90;;;;;;4928804;29;20057;-88
2021/10/08 00:05:26;;;;;;;17.23;13.20;;;10.40;99.90;;;;;;4950625;29;20024;-89
2021/10/08 00:07:52;;;;;;;20.35;13.43;;;10.40;99.90;;;;;;4962146;28;20054;-89
2021/10/08 00:10:22;;;;;;;22.88;14.23;;;10.40;99.90;;;;;;4944769;29;20036;-89
2021/10/08 00:12:47;;;;;;;24.00;14.57;;;10.30;99.90;;;;;;4953915;29;20044;-89
2021/10/08 00:15:13;;;;;;;23.42;14.15;;;10.30;99.90;;;;;;4957626;28;20046;-88
2021/10/08 00:17:40;;;;;;;21.20;13.25;;;10.30;99.90;;;;;;4946604;29;20122;-88
2021/10/08 00:20:09;;;;;;;20.98;13.68;;;10.20;99.90;;;;;;4964173;28;20106;-88
2021/10/08 00:22:35;;;;;;;28.00;14.25;;;10.20;99.90;;;;;;4944482;29;20477;-88
2021/10/08 00:25:09;;;;;;;19.77;13.15;;;10.20;99.90;;;;;;4949153;29;20468;-88
2021/10/08 00:27:37;;;;;;;;;;;10.20;99.90;;;;;;4956837;28;20479;-87
2021/10/08 00:30:09;;;;;;;18.67;12.23;;;10.10;99.90;;;;;;4955631;29;19956;-89
2021/10/08 00:32:40;;;;;;;22.48;12.65;;;10.10;99.90;;;;;;4955606;28;20123;-86
2021/10/08 00:35:14;;;;;;;16.70;12.32;;;10.10;99.90;;;;;;4955190;28;20042;-85
2021/10/08 00:38:03;;;;;;;25.80;12.52;;;10.00;99.90;;;;;;4945807;29;20087;-87
2021/10/08 00:41:05;;;;;;;20.85;13.13;;;10.00;99.90;;;;;;4955517;29;20054;-88
2021/10/08 00:43:32;;;;;;;17.10;11.57;;;10.00;99.90;;;;;;4954698;28;20122;-88
2021/10/08 00:46:03;;;;;;;18.77;12.07;;;10.00;99.90;;;;;;4939388;29;20039;-88
2021/10/08 00:48:33;;;;;;;18.42;12.45;;;10.00;99.90;;;;;;4940284;29;20032;-88
2021/10/08 00:51:04;;;;;;;16.60;11.10;;;9.90;99.90;;;;;;4955695;29;20035;-88
2021/10/08 00:53:31;;;;;;;19.08;11.55;;;9.90;99.90;;;;;;4956384;29;20062;-88
2021/10/08 00:55:58;;;;;;;17.40;11.48;;;9.80;99.90;;;;;;4955254;29;20037;-88
2021/10/08 00:58:30;;;;;;;14.05;10.48;;;9.80;99.90;;;;;;4955387;28;20035;-88
2021/10/08 01:04:19;;;;;;;17.50;11.00;;;9.80;99.90;;;;;;4955381;28;20106;-88
2021/10/08 01:06:48;;;;;;;22.75;11.80;;;9.70;99.90;;;;;;4958996;29;20031;-88
2021/10/08 01:09:15;;;;;;;13.43;10.05;;;9.80;99.90;;;;;;4959343;29;20063;-88
2021/10/08 01:11:43;;;;;;;15.25;10.48;;;9.70;99.90;;;;;;4959137;29;20037;-88
2021/10/08 01:14:10;;;;;;;25.67;10.68;;;9.70;99.90;;;;;;4959259;28;20112;-88
2021/10/08 01:16:37;;;;;;;14.48;10.77;;;9.70;99.90;;;;;;4975435;28;20062;-88
2021/10/08 01:22:31;;;;;;;19.23;11.55;;;9.70;99.90;;;;;;4961520;29;20427;-88
2021/10/08 01:24:58;;;;;;;16.40;11.90;;;9.60;99.90;;;;;;4959252;29;20463;-88
2021/10/08 01:27:33;;;;;;;18.02;12.00;;;9.60;99.90;;;;;;4960378;28;20460;-88
2021/10/08 01:30:02;;;;;;;17.27;12.05;;;9.60;99.90;;;;;;4958934;29;20042;-88
2021/10/08 01:32:51;;;;;;;19.20;11.65;;;9.50;99.90;;;;;;4959461;29;20047;-89
2021/10/08 01:35:20;;;;;;;19.00;11.68;;;9.60;99.90;;;;;;4959391;29;20549;-88
2021/10/08 01:37:56;;;;;;;20.25;11.55;;;9.50;99.90;;;;;;4958793;29;20019;-89
2021/10/08 01:40:23;;;;;;;16.60;11.45;;;9.50;99.90;;;;;;4958369;29;20023;-87
2021/10/08 01:42:51;;;;;;;16.75;12.48;;;9.50;99.90;;;;;;4959882;28;20031;-89
2021/10/08 01:45:24;;;;;;;17.13;12.32;;;9.50;99.90;;;;;;4962129;28;20121;-88
2021/10/08 01:47:57;;;;;;;21.10;14.25;;;9.50;99.90;;;;;;4940058;29;20081;-88
2021/10/08 01:50:24;;;;;;;19.42;12.82;;;9.50;99.90;;;;;;4938720;29;20031;-89
2021/10/08 01:52:53;;;;;;;17.52;13.27;;;9.50;99.90;;;;;;4938082;29;20101;-88
2021/10/08 01:58:41;;;;;;;20.80;12.75;;;9.50;99.90;;;;;;4938471;29;20091;-89
2021/10/08 02:01:41;;;;;;;19.15;12.88;;;9.40;99.90;;;;;;4937986;29;20377;-88
2021/10/08 02:04:09;;;;;;;18.85;12.73;;;9.40;99.90;;;;;;4938098;29;20492;-88
2021/10/08 02:06:35;;;;;;;22.08;13.10;;;9.30;99.90;;;;;;4938013;29;20530;-88
2021/10/08 02:12:25;;;;;;;20.02;12.25;;;9.30;99.90;;;;;;4938378;29;20022;-88
2021/10/08 02:15:20;;;;;;;18.33;12.63;;;9.30;99.90;;;;;;4937364;29;20183;-88
2021/10/08 02:17:48;;;;;;;18.25;12.93;;;9.30;99.90;;;;;;4937820;29;20488;-88
2021/10/08 02:20:20;;;;;;;16.27;12.55;;;9.20;99.90;;;;;;4938027;29;20047;-88
2021/10/08 02:26:08;;;;;;;19.80;11.75;;;9.20;99.90;;;;;;4971335;28;20046;-88
2021/10/08 02:28:45;;;;;;;17.17;11.55;;;9.20;99.90;;;;;;4977505;28;20039;-88
2021/10/08 02:31:14;;;;;;;15.82;11.35;;;9.20;99.90;;;;;;4961007;28;20037;-89
2021/10/08 02:34:26;;;;;;;14.98;11.48;;;9.10;99.90;;;;;;4977645;28;20049;-89
2021/10/08 02:36:53;;;;;;;16.55;11.30;;;9.10;99.90;;;;;;4976941;28;20042;-89
2021/10/08 02:42:42;;;;;;;17.98;11.43;;;9.10;99.90;;;;;;4977722;28;20474;-88
2021/10/08 02:48:34;;;;;;;15.50;11.25;;;9.00;99.90;;;;;;4977631;28;20029;-89
2021/10/08 02:51:15;;;;;;;15.60;10.95;;;9.00;99.90;;;;;;4960796;28;20027;-88
2021/10/08 02:53:42;;;;;;;17.30;11.93;;;9.10;99.90;;;;;;4960756;28;20038;-88
2021/10/08 02:59:33;;;;;;;21.75;11.60;;;9.00;99.90;;;;;;4977783;28;20022;-88
2021/10/08 03:02:04;;;;;;;17.02;11.10;;;9.00;99.90;;;;;;4978023;28;20041;-88
2021/10/08 03:08:15;;;;;;;17.13;11.18;;;9.00;99.90;;;;;;4977912;28;20122;-88
2021/10/08 03:10:43;;;;;;;15.93;10.45;;;8.90;99.90;;;;;;4959791;28;20054;-88
2021/10/08 03:13:18;;;;;;;27.15;10.88;;;8.90;99.90;;;;;;4944270;28;20027;-89
2021/10/08 03:16:05;;;;;;;14.57;9.68;;;8.90;99.90;;;;;;4941841;28;20097;-88
2021/10/08 03:21:53;;;;;;;16.83;9.43;;;8.90;99.90;;;;;;4977713;28;20022;-89
2021/10/08 03:27:48;;;;;;;22.23;10.57;;;8.90;99.90;;;;;;4978695;28;20026;-87
2021/10/08 03:30:15;;;;;;;17.52;9.60;;;8.90;99.90;;;;;;4960688;28;20035;-87
2021/10/08 03:32:44;;;;;;;35.17;10.77;;;8.80;99.90;;;;;;4976813;28;20416;-87
2021/10/08 03:35:13;;;;;;;19.25;9.40;;;8.80;99.90;;;;;;4959785;28;20141;-87
2021/10/08 03:37:53;;;;;;;20.48;9.82;;;8.80;99.90;;;;;;4976222;28;20486;-88
2021/10/08 03:40:32;;;;;;;18.35;9.00;;;8.80;99.90;;;;;;4947075;28;20045;-86
2021/10/08 03:46:21;;;;;;;18.50;8.68;;;8.70;99.90;;;;;;4977259;28;20089;-89
2021/10/08 03:55:31;;;;;;;15.30;8.13;;;8.60;99.90;;;;;;4938301;29;20106;-87
2021/10/08 03:57:58;;;;;;;9.82;7.88;;;8.60;99.90;;;;;;4938120;29;20457;-87
2021/10/08 04:00:27;;;;;;;13.18;7.97;;;8.60;99.90;;;;;;4936319;29;20059;-88
2021/10/08 04:02:56;;;;;;;13.27;8.65;;;8.50;99.90;;;;;;4936004;29;20061;-88
2021/10/08 04:05:23;;;;;;;13.30;8.00;;;8.50;99.90;;;;;;4941709;28;20103;-88
2021/10/08 04:07:54;;;;;;;13.10;8.60;;;8.50;99.90;;;;;;4959880;28;20031;-88
2021/10/08 04:10:25;;;;;;;13.55;8.55;;;8.50;99.90;;;;;;4977980;28;20371;-88
2021/10/08 04:12:57;;;;;;;11.63;8.38;;;8.50;99.90;;;;;;4961874;28;20416;-88
2021/10/08 04:15:26;;;;;;;14.73;9.27;;;8.60;99.90;;;;;;4977446;28;20046;-87
2021/10/08 04:18:00;;;;;;;12.63;8.48;;;8.60;99.90;;;;;;4976452;28;20034;-86
2021/10/08 04:20:29;;;;;;;14.30;9.07;;;8.50;99.90;;;;;;4961036;28;20095;-87
2021/10/08 04:22:58;;;;;;;16.98;9.65;;;8.50;99.90;;;;;;4977462;28;20105;-88
2021/10/08 04:25:27;;;;;;;14.38;9.15;;;8.60;99.90;;;;;;4976794;28;20041;-88
2021/10/08 04:27:58;;;;;;;24.27;10.40;;;8.50;99.90;;;;;;4976589;28;20046;-87
2021/10/08 04:30:56;;;;;;;18.83;8.95;;;8.50;99.90;;;;;;4943336;28;20090;-88
2021/10/08 04:33:26;;;;;;;19.00;9.50;;;8.50;99.90;;;;;;4956620;28;20388;-88
2021/10/08 04:36:04;;;;;;;15.40;8.88;;;8.50;99.90;;;;;;4975888;28;20029;-87
2021/10/08 04:38:31;;;;;;;21.42;10.00;;;8.50;99.90;;;;;;4976028;28;20480;-88
2021/10/08 04:41:00;;;;;;;17.73;9.65;;;8.50;99.90;;;;;;4957855;28;20035;-88
2021/10/08 04:43:28;;;;;;;21.83;10.00;;;8.50;99.90;;;;;;4974492;28;20368;-88
2021/10/08 04:45:59;;;;;;;17.13;9.13;;;8.40;99.90;;;;;;4955579;29;20023;-88
2021/10/08 04:48:28;;;;;;;14.80;9.07;;;8.40;99.90;;;;;;4974541;28;20405;-88
2021/10/08 04:50:56;;;;;;;17.95;9.10;;;8.40;99.90;;;;;;4954881;29;20079;-88
2021/10/08 04:53:26;;;;;;;14.25;8.60;;;8.40;99.90;;;;;;4972009;28;20093;-88
2021/10/08 04:56:00;;;;;;;14.52;8.65;;;8.40;99.90;;;;;;4955106;29;20464;-87
2021/10/08 04:58:25;;;;;;;16.60;8.70;;;8.40;99.90;;;;;;4974233;28;20058;-88
2021/10/08 05:00:52;;;;;;;14.38;8.75;;;8.40;99.90;;;;;;4975579;28;20030;-89
2021/10/08 05:03:19;;;;;;;21.45;9.10;;;8.40;99.90;;;;;;4958472;28;20031;-88
2021/10/08 05:05:47;;;;;;;16.75;8.38;;;8.40;99.90;;;;;;4974636;28;20030;-89
2021/10/08 05:08:17;;;;;;;18.50;8.52;;;8.40;99.90;;;;;;4974060;28;20035;-89
2021/10/08 05:10:45;;;;;;;15.73;9.15;;;8.40;99.90;;;;;;4974609;28;20027;-90
2021/10/08 05:13:11;;;;;;;13.98;8.40;;;8.40;99.90;;;;;;4958443;28;20356;-90
2021/10/08 05:15:40;;;;;;;16.60;8.82;;;8.40;99.90;;;;;;4974427;28;20082;-89
2021/10/08 05:18:07;;;;;;;20.42;9.30;;;8.40;99.90;;;;;;4973976;28;20026;-90
2021/10/08 05:20:38;;;;;;;13.32;8.00;;;8.40;99.90;;;;;;4958905;28;20027;-89
2021/10/08 05:23:07;;;;;;;19.70;10.05;;;8.40;99.90;;;;;;4974354;28;20035;-88
2021/10/08 05:25:38;;;;;;;16.73;8.88;;;8.40;99.90;;;;;;4956265;28;20118;-88
2021/10/08 05:28:07;;;;;;;16.55;9.55;;;8.40;99.90;;;;;;4955080;28;20039;-90
2021/10/08 05:30:34;;;;;;;16.27;9.13;;;8.40;99.90;;;;;;4957939;28;20031;-88
2021/10/08 05:33:04;;;;;;;14.18;8.75;;;8.40;99.90;;;;;;4958372;28;20420;-88
2021/10/08 05:35:33;;;;;;;18.35;9.75;;;8.40;99.90;;;;;;4957833;28;20035;-88
2021/10/08 05:38:05;;;;;;;13.15;9.73;;;8.40;99.90;;;;;;4975346;28;20035;-89
2021/10/08 05:40:33;;;;;;;14.70;9.45;;;8.30;99.90;;;;;;4957984;28;20375;-89
2021/10/08 05:43:01;;;;;;;17.25;9.50;;;8.30;99.90;;;;;;4973848;28;20027;-88
2021/10/08 05:45:27;;;;;;;18.25;8.93;;;8.30;99.90;;;;;;4974365;28;20027;-88
2021/10/08 05:47:59;;;;;;;18.50;9.65;;;8.30;99.90;;;;;;4975273;28;20288;-88
2021/10/08 05:50:25;;;;;;;18.00;9.77;;;8.40;99.90;;;;;;4975320;28;20450;-88
2021/10/08 05:52:53;;;;;;;12.60;8.38;;;8.30;99.90;;;;;;4961915;28;20130;-88
2021/10/08 05:55:23;;;;;;;16.08;9.50;;;8.30;99.90;;;;;;4962386;28;20035;-89
2021/10/08 05:57:52;;;;;;;18.83;9.23;;;8.40;99.90;;;;;;4977530;28;20061;-88
2021/10/08 06:00:18;;;;;;;19.50;9.57;;;8.40;99.90;;;;;;4962011;28;20038;-88
2021/10/08 06:02:46;;;;;;;21.70;10.48;;;8.40;99.90;;;;;;4961512;28;20467;-88
2021/10/08 06:05:19;;;;;;;16.10;9.98;;;8.40;99.90;;;;;;4961230;28;20127;-88
2021/10/08 06:07:46;;;;;;;21.17;9.48;;;8.40;99.90;;;;;;4977476;28;20371;-89
2021/10/08 06:10:15;;;;;;;17.75;9.88;;;8.50;99.90;;;;;;4961456;28;20046;-89
2021/10/08 06:12:44;;;;;;;18.85;9.93;;;8.50;99.90;;;;;;4977864;28;20420;-89
2021/10/08 06:15:13;;;;;;;16.05;10.25;;;8.60;99.90;;;;;;4976747;28;20042;-89
2021/10/08 06:17:42;;;;;;;15.00;10.70;;;8.50;99.90;;;;;;4978964;28;20034;-89
2021/10/08 06:20:17;;;;;;;28.70;10.52;;;8.60;99.90;;;;;;4961440;28;20077;-88
2021/10/08 06:22:49;;;;;;;21.95;11.23;;;8.60;99.90;;;;;;4960903;28;20031;-89
2021/10/08 06:25:18;;;;;;;20.60;10.70;;;8.60;99.90;;;;;;4961848;28;20479;-88
2021/10/08 06:27:51;;;;;;;26.10;10.43;;;8.70;99.90;;;;;;4963333;28;20530;-88
2021/10/08 06:30:21;;;;;;;26.73;10.88;;;8.70;99.90;;;;;;4961893;28;20031;-87
2021/10/08 06:33:08;;;;;;;28.30;10.95;;;8.70;99.90;;;;;;4963301;28;20023;-88
2021/10/08 06:35:42;;;;;;;23.77;10.63;;;8.70;99.90;;;;;;4946266;28;20451;-89
2021/10/08 06:38:23;;;;;;;21.00;10.50;;;8.80;99.90;;;;;;4978483;28;20030;-89
2021/10/08 06:40:53;;;;;;;26.10;11.10;;;8.80;99.90;;;;;;4977948;28;20039;-88
2021/10/08 06:43:28;;;;;;;17.67;10.05;;;8.80;99.90;;;;;;4957413;29;20106;-88
2021/10/08 06:46:17;;;;;;;31.20;10.50;;;8.80;99.90;;;;;;4919676;28;20102;-88
2021/10/08 06:49:39;;;;;;;20.23;10.75;;;8.90;99.90;;;;;;4958244;29;20035;-88
2021/10/08 06:55:27;;;;;;;22.58;9.40;;;9.00;99.90;;;;;;4958626;29;20114;-87
2021/10/08 07:01:17;;;;;;;16.00;9.65;;;9.10;99.90;;;;;;4958339;29;20078;-88
2021/10/08 07:03:43;;;;;;;23.70;10.45;;;9.10;99.90;;;;;;4955532;28;20070;-88
2021/10/08 07:06:10;;;;;;;19.33;10.00;;;9.20;99.90;;;;;;4956792;29;20043;-88
2021/10/08 07:12:46;;;;;;;16.17;9.77;;;9.30;99.90;;;;;;4958657;29;20425;-88
2021/10/08 07:15:18;;;;;;;29.00;10.52;;;9.30;99.90;;;;;;4956857;29;20133;-88
2021/10/08 07:17:55;;;;;;;16.35;10.15;;;9.40;99.90;;;;;;4936619;29;20480;-89
2021/10/08 07:20:27;;;;;;;18.67;10.63;;;9.40;99.90;;;;;;4956926;28;20043;-89
2021/10/08 07:23:33;;;;;;;17.20;10.75;;;9.50;99.90;;;;;;4959945;29;20133;-89
2021/10/08 07:26:04;;;;;;;14.15;10.32;;;9.50;99.90;;;;;;4959486;28;20042;-89
2021/10/08 07:28:31;;;;;;;19.05;10.50;;;9.60;99.90;;;;;;4941568;29;20130;-89
2021/10/08 07:30:58;;;;;;;17.80;10.40;;;9.60;99.90;;;;;;4961067;28;20027;-89
2021/10/08 07:33:24;;;;;;;14.57;10.55;;;9.60;99.90;;;;;;4959352;28;20046;-89
2021/10/08 07:36:46;;;;;;;19.20;10.23;;;9.70;99.90;;;;;;4961099;28;20043;-88
2021/10/08 07:42:38;;;;;;;17.73;12.07;;;9.90;99.90;;;;;;4957982;29;20051;-88
2021/10/08 07:51:48;;;;;;;16.63;10.60;;;10.00;99.90;;;;;;4958096;29;20034;-89
2021/10/08 07:57:38;;;;;;;17.40;11.60;;;10.10;99.90;;;;;;4960365;29;20050;-88
2021/10/08 08:06:49;;;;;;;17.58;10.98;;;10.30;99.90;;;;;;4961342;29;20121;-89
2021/10/08 08:12:37;;;;;;;16.58;11.93;;;10.50;99.90;;;;;;4960982;29;20038;-89
2021/10/08 08:15:08;;;;;;;20.02;12.13;;;10.60;99.90;;;;;;4956606;28;20070;-89
2021/10/08 08:20:56;;;;;;;19.75;13.50;;;10.90;99.90;;;;;;4960489;29;20447;-89
2021/10/08 08:23:59;;;;;;;20.10;13.55;;;10.90;99.90;;;;;;4959360;29;20043;-88
2021/10/08 08:26:28;;;;;;;24.58;12.52;;;11.00;99.90;;;;;;4955833;29;20115;-88
2021/10/08 08:28:54;;;;;;;18.92;13.02;;;11.00;99.90;;;;;;4957628;29;20069;-89
2021/10/08 08:31:22;;;;;;;17.85;12.93;;;11.10;99.90;;;;;;4959520;28;20145;-89
2021/10/08 08:40:16;;;;;;;18.33;12.80;;;11.40;99.90;;;;;;4953016;28;20124;-90
2021/10/08 08:42:56;;;;;;;22.10;14.95;;;11.50;99.90;;;;;;4957309;29;20043;-90
2021/10/08 08:45:22;;;;;;;22.67;14.48;;;11.50;99.90;;;;;;4952415;29;20039;-89
2021/10/08 08:51:14;;;;;;;21.08;12.68;;;11.70;99.90;;;;;;4951347;29;20030;-89
2021/10/08 08:57:14;;;;;;;20.40;14.40;;;11.90;99.90;;;;;;4956636;29;20027;-89
2021/10/08 09:03:04;;;;;;;23.08;15.07;;;12.40;99.90;;;;;;4956202;29;20428;-89
2021/10/08 09:08:53;;;;;;;24.05;16.00;;;12.80;99.90;;;;;;4955464;28;20034;-89
2021/10/08 09:11:20;;;;;;;28.58;18.50;;;13.00;99.90;;;;;;4936088;28;20387;-90
2021/10/08 09:13:47;;;;;;;28.27;19.60;;;13.30;99.90;;;;;;4956940;28;20045;-89
2021/10/08 09:16:13;;;;;;;26.52;18.75;;;13.70;99.90;;;;;;4937362;28;20082;-89
2021/10/08 09:18:49;;;;;;;34.35;21.77;;;14.30;99.90;;;;;;4945072;28;20027;-89
2021/10/08 09:21:18;;;;;;;31.25;22.27;;;14.70;99.90;;;;;;4969123;28;20085;-89
2021/10/08 09:23:49;;;;;;;31.55;22.52;;;15.20;99.90;;;;;;4955355;28;20467;-89
2021/10/08 09:26:25;;;;;;;32.65;22.38;;;16.10;99.90;;;;;;4973494;28;20046;-88
2021/10/08 09:29:16;;;;;;;28.38;20.08;;;17.30;99.90;;;;;;4958252;28;20042;-88
2021/10/08 09:31:43;;;;;;;27.50;19.92;;;18.50;99.90;;;;;;4959773;28;20038;-88
2021/10/08 09:34:23;;;;;;;26.83;19.65;;;19.50;99.90;;;;;;4958831;28;20134;-88
2021/10/08 09:36:58;;;;;;;23.50;18.33;;;20.30;99.90;;;;;;4968787;28;20027;-88
2021/10/08 09:39:38;;;;;;;21.83;17.30;;;20.90;99.90;;;;;;4943925;29;20075;-87
2021/10/08 09:42:13;;;;;;;24.42;18.58;;;21.60;99.90;;;;;;4919815;29;20043;-87
2021/10/08 09:44:51;;;;;;;23.00;18.20;;;22.10;99.90;;;;;;4950745;29;20042;-89
2021/10/08 09:47:21;;;;;;;24.33;18.85;;;22.50;99.90;;;;;;4921256;29;20408;-88
2021/10/08 09:49:51;;;;;;;23.02;17.00;;;22.90;99.90;;;;;;4939548;29;20039;-88
2021/10/08 09:52:27;;;;;;;24.42;18.05;;;23.20;99.90;;;;;;4933727;29;20037;-88
2021/10/08 09:55:02;;;;;;;22.58;17.30;;;23.60;99.90;;;;;;4950694;29;20044;-88
2021/10/08 09:57:29;;;;;;;20.23;16.05;;;23.80;99.90;;;;;;4933013;29;20027;-88
2021/10/08 09:59:55;;;;;;;19.42;15.20;;;24.20;99.90;;;;;;4947711;29;20541;-89
2021/10/08 10:02:22;;;;;;;19.30;15.05;;;24.60;99.90;;;;;;4934656;29;20094;-88
2021/10/08 10:04:54;;;;;;;19.02;14.88;;;24.90;99.90;;;;;;4936919;29;20035;-88
2021/10/08 10:07:24;;;;;;;18.05;14.00;;;25.20;99.90;;;;;;4933679;29;20035;-89
2021/10/08 10:09:50;;;;;;;18.05;13.60;;;25.40;99.90;;;;;;4950460;29;20040;-88
2021/10/08 10:12:18;;;;;;;17.77;14.13;;;25.70;99.90;;;;;;4943124;29;20174;-88
2021/10/08 10:14:51;;;;;;;17.08;13.38;;;25.90;99.90;;;;;;4943694;29;20047;-87
2021/10/08 10:17:17;;;;;;;;;;;26.10;99.90;;;;;;4939208;29;20043;-87
2021/10/08 10:19:45;;;;;;;18.30;13.88;;;26.00;99.90;;;;;;4958203;29;19925;-88
2021/10/08 10:22:17;;;;;;;15.13;11.45;;;26.20;99.90;;;;;;4938792;29;20035;-87
2021/10/08 10:24:46;;;;;;;15.50;12.65;;;26.30;99.90;;;;;;4939480;29;20031;-88
2021/10/08 10:27:14;;;;;;;16.13;13.07;;;26.50;99.90;;;;;;4940239;29;20031;-88
2021/10/08 10:29:41;;;;;;;18.13;14.13;;;26.50;99.90;;;;;;4941424;29;20472;-88
2021/10/08 10:32:08;;;;;;;17.30;14.57;;;26.60;99.90;;;;;;4941430;29;20491;-89
2021/10/08 10:34:36;;;;;;;17.95;13.85;;;26.70;99.90;;;;;;4941233;29;20062;-87
2021/10/08 10:37:03;;;;;;;18.35;14.00;;;26.90;99.90;;;;;;4941035;29;20053;-89
2021/10/08 10:39:29;;;;;;;19.45;15.15;;;26.90;99.90;;;;;;4941424;28;20051;-88
2021/10/08 10:42:04;;;;;;;17.08;13.82;;;27.00;99.90;;;;;;4960014;28;20082;-89
2021/10/08 10:44:38;;;;;;;16.17;13.38;;;27.10;99.90;;;;;;4975451;28;20046;-88
2021/10/08 10:47:32;;;;;;;17.30;13.82;;;27.20;99.90;;;;;;4959422;28;20026;-88
2021/10/08 10:50:28;;;;;;;16.08;12.88;;;27.30;99.60;;;;;;4975332;28;20031;-88
2021/10/08 10:53:00;;;;;;;14.10;11.52;;;27.40;99.20;;;;;;4976481;28;20023;-88
2021/10/08 10:55:32;;;;;;;15.43;12.45;;;27.40;98.70;;;;;;4959104;28;20379;-88
2021/10/08 10:58:05;;;;;;;14.40;10.82;;;27.50;98.20;;;;;;4959288;28;20065;-88
2021/10/08 11:00:33;;;;;;;;;;;27.50;97.60;;;;;;4959522;28;20534;-88
2021/10/08 11:03:18;;;;;;;13.80;10.68;;;27.60;97.30;;;;;;4975188;28;20052;-88
2021/10/08 11:06:08;;;;;;;13.50;10.40;;;27.70;97.40;;;;;;4976381;28;20522;-88
2021/10/08 11:08:56;;;;;;;13.65;10.30;;;27.70;96.40;;;;;;4958645;28;20042;-88
2021/10/08 11:11:24;;;;;;;12.40;9.52;;;27.70;95.90;;;;;;4975630;28;20041;-87
2021/10/08 11:13:52;;;;;;;10.15;8.45;;;27.80;95.50;;;;;;4958699;28;20038;-88
2021/10/08 11:16:29;;;;;;;9.80;8.25;;;28.00;95.40;;;;;;4958341;28;20034;-88
2021/10/08 11:18:56;;;;;;;10.45;7.93;;;28.30;94.80;;;;;;4974504;28;20169;-88
2021/10/08 11:21:25;;;;;;;8.68;7.18;;;28.40;94.20;;;;;;4958253;28;20506;-88
2021/10/08 11:23:51;;;;;;;10.57;8.35;;;28.50;93.90;;;;;;4958247;28;20031;-88
2021/10/08 11:26:17;;;;;;;9.30;7.70;;;28.70;93.20;;;;;;4958555;28;20383;-88
2021/10/08 11:28:46;;;;;;;8.25;6.70;;;28.90;92.80;;;;;;4958655;28;20031;-88
2021/10/08 11:31:17;;;;;;;9.05;7.65;;;29.00;92.20;;;;;;4975084;28;20031;-88
2021/10/08 11:33:47;;;;;;;8.25;6.82;;;29.00;91.90;;;;;;4975644;28;20045;-88
2021/10/08 11:36:17;;;;;;;9.50;7.05;;;29.00;91.60;;;;;;4974191;28;20035;-88
2021/10/08 11:41:27;;;;;;;7.78;6.10;;;29.30;91.30;;;;;;5068569;27;1336400;-88
2021/10/08 11:44:30;;;;;;;7.63;6.30;;;29.60;90.80;;;;;;5093330;28;20028;-87
2021/10/08 11:47:19;;;;;;;7.07;4.65;;;29.80;90.20;;;;;;5069629;28;20024;-88
2021/10/08 11:50:09;;;;;;;5.60;4.38;;;29.90;89.40;;;;;;5097402;28;20114;-89
2021/10/08 11:52:46;;;;;;;5.80;4.25;;;30.00;88.90;;;;;;5083623;28;20036;-88
2021/10/08 11:55:12;;;;;;;6.00;4.07;;;30.10;87.10;;;;;;5078463;28;20077;-88
2021/10/08 11:57:59;;;;;;;4.82;3.80;;;30.20;86.60;;;;;;5111734;28;20085;-88
2021/10/08 12:00:35;;;;;;;5.40;3.80;;;30.50;84.90;;;;;;5093337;28;20028;-88
2021/10/08 12:03:07;;;;;;;5.65;3.90;;;30.50;84.40;;;;;;5093501;28;20016;-88
2021/10/08 12:05:53;;;;;;;4.97;3.60;;;30.60;83.80;;;;;;5093232;28;20102;-88
2021/10/08 12:08:35;;;;;;;4.07;2.83;;;30.70;82.80;;;;;;5111599;28;20095;-88
2021/10/08 12:11:15;;;;;;;4.65;2.60;;;30.80;81.90;;;;;;5093885;28;20016;-88
2021/10/08 12:14:04;;;;;;;6.35;2.50;;;30.90;81.00;;;;;;5093288;28;20348;-88
2021/10/08 12:17:01;;;;;;;3.70;2.17;;;31.10;80.70;;;;;;5111395;28;20016;-88
2021/10/08 12:19:30;;;;;;;2.70;2.13;;;31.20;79.10;;;;;;5092673;28;20024;-88
2021/10/08 12:21:58;;;;;;;2.50;1.70;;;31.10;78.60;;;;;;5092843;28;20024;-89
2021/10/08 12:24:24;;;;;;;2.70;1.90;;;31.20;78.30;;;;;;5076056;28;20073;-89
2021/10/08 12:27:18;;;;;;;1.90;1.50;;;31.30;77.40;;;;;;5110893;28;20061;-89
2021/10/08 12:29:51;;;;;;;3.05;1.17;;;31.30;76.20;;;;;;5089049;28;20092;-89
2021/10/08 12:32:19;;;;;;;2.20;1.48;;;31.10;75.50;;;;;;5072954;28;20024;-89
2021/10/08 12:34:49;;;;;;;3.97;1.40;;;31.20;75.30;;;;;;5091388;28;20100;-88
2021/10/08 12:37:18;;;;;;;2.60;1.60;;;31.50;74.80;;;;;;5092606;28;20023;-88
2021/10/08 12:40:09;;;;;;;2.72;1.10;;;31.50;74.20;;;;;;5091880;28;20040;-88
2021/10/08 12:42:59;;;;;;;1.45;1.00;;;31.60;74.10;;;;;;5110942;28;20368;-89
2021/10/08 12:48:31;;;;;;;1.70;0.95;;;31.50;72.40;;;;;;5110056;28;20026;-88
2021/10/08 12:51:06;;;;;;;2.10;1.25;;;31.30;72.30;;;;;;5088432;28;20020;-89
2021/10/08 12:53:33;;;;;;;3.25;1.10;;;31.40;72.20;;;;;;5079052;28;20169;-88
2021/10/08 12:56:19;;;;;;;2.45;1.10;;;31.20;72.00;;;;;;5078659;28;20019;-88
2021/10/08 12:58:55;;;;;;;2.17;1.13;;;31.30;71.90;;;;;;5078743;28;20474;-88
2021/10/08 13:01:23;;;;;;;1.88;1.17;;;31.30;72.70;;;;;;5076746;28;20008;-89
2021/10/08 13:03:50;;;;;;;1.83;1.10;;;31.10;72.70;;;;;;5078136;28;20031;-89
2021/10/08 13:06:19;;;;;;;1.45;1.13;;;31.20;72.30;;;;;;5078083;28;20020;-88
2021/10/08 13:09:15;;;;;;;1.25;0.93;;;31.00;72.00;;;;;;5091007;28;20024;-89
2021/10/08 13:12:00;;;;;;;2.20;1.10;;;31.00;71.80;;;;;;5094612;28;20372;-88
2021/10/08 13:14:28;;;;;;;1.63;1.10;;;30.80;72.10;;;;;;5075863;28;20040;-88
2021/10/08 13:16:56;;;;;;;1.63;1.20;;;30.70;72.00;;;;;;5076895;28;20020;-88
2021/10/08 13:19:30;;;;;;;2.15;1.40;;;30.40;72.00;;;;;;5077237;28;20077;-88
2021/10/08 13:21:58;;;;;;;2.53;1.50;;;30.30;72.70;;;;;;5077390;28;20028;-88
2021/10/08 13:24:26;;;;;;;3.60;2.20;;;29.90;73.40;;;;;;5095322;28;20036;-88
2021/10/08 13:26:53;;;;;;;3.47;2.35;;;29.40;74.20;;;;;;5077821;28;20082;-88
2021/10/08 13:29:23;;;;;;;3.45;2.38;;;28.90;75.00;;;;;;5083834;28;20036;-89
2021/10/08 13:31:49;;;;;;;4.00;2.83;;;28.60;75.90;;;;;;5080215;28;20102;-88
2021/10/08 13:34:15;;;;;;;4.03;2.95;;;28.30;76.80;;;;;;5096304;28;20024;-88
2021/10/08 13:36:43;;;;;;;5.07;2.83;;;27.80;77.60;;;;;;5096636;28;20012;-88
2021/10/08 13:39:09;;;;;;;3.97;2.92;;;27.50;78.30;;;;;;5095720;28;20024;-88
2021/10/08 13:41:37;;;;;;;3.92;2.88;;;27.30;78.60;;;;;;5095038;28;20040;-88
2021/10/08 13:44:08;;;;;;;4.53;2.78;;;27.00;78.90;;;;;;5076321;28;20092;-88
2021/10/08 13:46:38;;;;;;;3.00;2.13;;;26.60;80.00;;;;;;5095909;28;20008;-88
2021/10/08 13:49:04;;;;;;;2.92;2.58;;;26.10;81.60;;;;;;5077805;28;20027;-88
2021/10/08 13:51:31;;;;;;;3.40;2.75;;;25.70;82.60;;;;;;5061249;28;20020;-88
2021/10/08 13:57:19;;;;;;;3.50;2.67;;;24.80;84.90;;;;;;5096564;28;20074;-88
2021/10/08 14:12:54;;;;;;;3.38;2.55;;;23.10;90.30;;;;;;5095255;28;20489;-87
2021/10/08 14:15:26;;;;;;;3.17;2.38;;;23.20;90.40;;;;;;5077121;28;20528;-89
2021/10/08 14:17:54;;;;;;;3.00;2.20;;;23.10;90.50;;;;;;5085762;28;20604;-86
2021/10/08 14:20:22;;;;;;;3.47;2.25;;;23.00;90.80;;;;;;5077010;28;20034;-86
2021/10/08 14:26:16;;;;;;;3.42;2.72;;;22.60;91.10;;;;;;5095146;28;20042;-86
2021/10/08 14:32:05;;;;;;;5.55;2.50;;;22.10;92.30;;;;;;5095053;28;20074;-86
2021/10/08 14:41:16;;;;;;;3.90;2.85;;;21.10;93.40;;;;;;5085215;28;20054;-87
2021/10/08 14:43:42;;;;;;;4.22;2.92;;;20.80;94.30;;;;;;5093654;28;20468;-86
2021/10/08 14:46:09;;;;;;;3.85;2.75;;;20.70;94.60;;;;;;5075685;28;20020;-86
2021/10/08 14:51:57;;;;;;;2.97;2.30;;;20.60;94.80;;;;;;5093857;28;20072;-87
2021/10/08 14:54:31;;;;;;;4.00;2.78;;;20.40;95.20;;;;;;5074524;28;20053;-88
2021/10/08 14:59:44;;;;;;;3.00;2.47;;;20.00;95.80;;;;;;5093865;28;20077;-87
2021/10/08 15:02:11;;;;;;;2.70;1.80;;;20.00;96.00;;;;;;5075080;28;20016;-88
2021/10/08 15:04:40;;;;;;;3.00;2.17;;;19.90;96.30;;;;;;5074857;28;20028;-86
2021/10/08 15:07:07;;;;;;;2.78;2.13;;;19.90;96.30;;;;;;5074974;28;20019;-86
2021/10/08 15:09:35;;;;;;;3.33;2.20;;;19.80;96.40;;;;;;5058237;28;20131;-87
2021/10/08 15:12:02;;;;;;;3.55;2.17;;;19.70;96.70;;;;;;5074240;28;20023;-86
2021/10/08 15:14:29;;;;;;;2.95;2.28;;;19.70;96.90;;;;;;5074042;28;20020;-87
2021/10/08 15:16:56;;;;;;;2.88;1.95;;;19.60;97.00;;;;;;5075314;28;20015;-87
2021/10/08 15:19:24;;;;;;;3.20;2.30;;;19.50;97.20;;;;;;5055452;28;20108;-86
2021/10/08 15:21:54;;;;;;;4.30;2.63;;;19.50;97.40;;;;;;5054924;28;20408;-87
2021/10/08 15:24:30;;;;;;;3.85;2.30;;;19.30;97.60;;;;;;5075948;28;20024;-87
2021/10/08 15:26:58;;;;;;;3.15;2.20;;;19.30;98.10;;;;;;5073003;28;20046;-86
2021/10/08 15:29:26;;;;;;;3.10;2.30;;;19.20;98.40;;;;;;5074001;28;20063;-86
2021/10/08 15:31:55;;;;;;;4.28;2.28;;;19.20;98.50;;;;;;5058141;28;20031;-86